Terminal Aerodrome Forecast
Issued by NWS

Home | Current Version | Previous Version | Text Only | Print | Product List | Glossary On
Versions: 1 2 3 4 5 6 7 8 9 10 11 12 13 14 15 16
000
FTUS46 KMFR 301133
TAFLMT
TAF
KLMT 301133Z 3012/3112 VRB05KT P6SM BKN200
     FM301500 23006KT P6SM SCT040 BKN150
     FM301800 25011G20KT P6SM BKN040
     FM302200 29012KT P6SM SCT050=

USA.gov is the U.S. government's official web portal to all federal, state and local government web resources and services.